createdAt,value
2018-10-02T00:02:05.410Z,101113.76
2018-10-02T00:05:09.689Z,101109.62
2018-10-02T00:08:13.703Z,101103.68
2018-10-02T00:11:22.919Z,101105.02
2018-10-02T00:14:28.662Z,101107.11
2018-10-02T00:17:32.606Z,101102.69
2018-10-02T00:20:36.572Z,101104.71
2018-10-02T00:23:40.507Z,101112.46
2018-10-02T00:26:44.447Z,101110.17
2018-10-02T00:29:48.385Z,101119.90
2018-10-02T00:32:52.329Z,101125.58
2018-10-02T00:35:56.274Z,101120.73
2018-10-02T00:39:00.541Z,101118.71
2018-10-02T00:42:05.042Z,101120.23
2018-10-02T00:45:08.974Z,101130.45
2018-10-02T00:48:12.911Z,101115.96
2018-10-02T00:51:16.845Z,101109.48
2018-10-02T00:54:20.830Z,101105.21
2018-10-02T00:57:24.770Z,101097.11
2018-10-02T01:00:28.713Z,101094.35
2018-10-02T01:03:32.762Z,101087.62
2018-10-02T01:06:36.683Z,101084.69
2018-10-02T01:09:40.641Z,101078.84
2018-10-02T01:12:44.593Z,101076.81
2018-10-02T01:15:48.540Z,101080.11
2018-10-02T01:18:52.486Z,101076.72
2018-10-02T01:21:56.433Z,101074.70
2018-10-02T01:25:00.366Z,101072.94
2018-10-02T01:28:04.638Z,101063.70
2018-10-02T01:31:09.387Z,101071.36
2018-10-02T01:34:13.335Z,101056.43
2018-10-02T01:37:17.265Z,101059.52
2018-10-02T01:40:21.269Z,101054.36
2018-10-02T01:43:25.193Z,101048.23
2018-10-02T01:46:29.110Z,101046.21
2018-10-02T01:49:33.046Z,101034.55
2018-10-02T01:52:37.341Z,101036.22
2018-10-02T01:55:41.491Z,101034.02
2018-10-02T01:58:45.431Z,101026.47
2018-10-02T02:01:49.734Z,101020.50
2018-10-02T02:04:53.711Z,101022.19
2018-10-02T02:07:57.666Z,101027.08
2018-10-02T02:11:01.622Z,101025.75
2018-10-02T02:14:05.897Z,101026.55
2018-10-02T02:17:09.838Z,101019.74
2018-10-02T02:20:14.087Z,101019.81
2018-10-02T02:23:18.027Z,101014.02
2018-10-02T02:26:21.959Z,101014.95
2018-10-02T02:29:25.903Z,101015.85
2018-10-02T02:32:30.361Z,101017.23
2018-10-02T02:35:34.302Z,101020.22
2018-10-02T02:38:38.238Z,101014.28
2018-10-02T02:41:42.198Z,101002.84
2018-10-02T02:44:46.329Z,100990.84
2018-10-02T02:47:55.554Z,100987.56
2018-10-02T02:51:04.945Z,100987.17
2018-10-02T02:54:09.079Z,100980.34
2018-10-02T02:57:13.334Z,100974.86
2018-10-02T03:00:17.273Z,100978.25
2018-10-02T03:03:21.233Z,100979.45
2018-10-02T03:06:25.378Z,100988.22
2018-10-02T03:09:29.334Z,100984.73
2018-10-02T03:12:33.269Z,100991.02
2018-10-02T03:15:37.261Z,100993.99
2018-10-02T03:18:41.388Z,100984.95
2018-10-02T03:21:45.379Z,100984.95
2018-10-02T03:24:49.479Z,100982.08
2018-10-02T03:27:53.469Z,100976.52
2018-10-02T03:30:57.401Z,100970.14
2018-10-02T03:34:01.361Z,100980.41
2018-10-02T03:37:05.631Z,100983.41
2018-10-02T03:40:09.881Z,100981.05
2018-10-02T03:43:14.009Z,100966.36
2018-10-02T03:46:18.336Z,100954.47
2018-10-02T03:49:22.614Z,100946.86
2018-10-02T03:52:26.567Z,100944.80
2018-10-02T03:55:30.498Z,100938.86
2018-10-02T03:58:34.485Z,100938.02
2018-10-02T04:01:38.612Z,100934.59
2018-10-02T04:04:42.543Z,100935.13
2018-10-02T04:07:46.486Z,100930.26
2018-10-02T04:10:50.429Z,100923.88
2018-10-02T04:13:54.368Z,100944.70
2018-10-02T04:16:58.882Z,100951.01
2018-10-02T04:20:03.150Z,100963.66
2018-10-02T04:23:07.087Z,100947.52
2018-10-02T04:26:11.257Z,100931.31
2018-10-02T04:29:15.206Z,100929.30
2018-10-02T04:32:19.179Z,100923.92
2018-10-02T04:35:23.115Z,100923.09
2018-10-02T04:38:27.065Z,100934.14
2018-10-02T04:41:31.015Z,100937.09
2018-10-02T04:44:34.953Z,100940.75
2018-10-02T04:47:38.903Z,100946.05
2018-10-02T04:50:42.814Z,100940.16
2018-10-02T04:53:46.829Z,100927.92
2018-10-02T04:56:50.782Z,100926.58
2018-10-02T04:59:54.717Z,100918.20
2018-10-02T05:02:58.673Z,100919.05
2018-10-02T05:06:02.623Z,100917.71
2018-10-02T05:09:08.234Z,100915.44
2018-10-02T05:12:12.186Z,100909.60
2018-10-02T05:15:16.111Z,100903.22
2018-10-02T05:18:20.054Z,100903.95
2018-10-02T05:21:24.006Z,100895.55
2018-10-02T05:24:27.995Z,100895.45
2018-10-02T05:27:32.468Z,100889.01
2018-10-02T05:30:36.590Z,100877.52
2018-10-02T05:33:40.619Z,100874.39
2018-10-02T05:36:44.687Z,100873.19
2018-10-02T05:39:48.644Z,100873.79
2018-10-02T05:42:52.668Z,100870.63
2018-10-02T05:45:56.703Z,100870.41
2018-10-02T05:49:00.647Z,100867.64
2018-10-02T05:52:04.575Z,100861.62
2018-10-02T05:55:08.826Z,100865.73
2018-10-02T05:58:12.764Z,100863.17
2018-10-02T06:01:16.882Z,100863.02
2018-10-02T06:04:20.818Z,100859.94
2018-10-02T06:07:24.818Z,100860.05
2018-10-02T06:10:28.757Z,100865.05
2018-10-02T06:13:32.866Z,100852.17
2018-10-02T06:16:36.822Z,100852.61
2018-10-02T06:19:40.852Z,100845.89
2018-10-02T06:22:44.793Z,100842.33
2018-10-02T06:25:48.962Z,100841.55
2018-10-02T06:28:52.886Z,100840.50
2018-10-02T06:31:56.815Z,100840.67
2018-10-02T06:35:00.743Z,100841.76
2018-10-02T06:38:04.817Z,100836.03
2018-10-02T06:41:08.887Z,100834.64
2018-10-02T06:44:12.920Z,100833.92
2018-10-02T06:47:16.841Z,100836.48
2018-10-02T06:50:20.832Z,100838.26
2018-10-02T06:53:24.947Z,100831.70
2018-10-02T06:56:28.905Z,100833.14
2018-10-02T06:59:33.019Z,100828.76
2018-10-02T07:02:36.958Z,100814.50
2018-10-02T07:05:41.356Z,100805.19
2018-10-02T07:08:45.553Z,100797.58
2018-10-02T07:11:49.622Z,100789.94
2018-10-02T07:14:53.584Z,100786.08
2018-10-02T07:17:57.666Z,100768.18
2018-10-02T07:21:01.667Z,100767.35
2018-10-02T07:24:06.058Z,100758.49
2018-10-02T07:27:10.166Z,100762.18
2018-10-02T07:30:14.463Z,100767.17
2018-10-02T07:33:18.403Z,100764.68
2018-10-02T07:36:22.355Z,100766.46
2018-10-02T07:39:26.312Z,100763.73
2018-10-02T07:42:30.331Z,100754.57
2018-10-02T07:45:34.415Z,100756.05
2018-10-02T07:48:38.710Z,100749.06
2018-10-02T07:51:42.929Z,100740.97
2018-10-02T07:54:46.927Z,100737.11
2018-10-02T07:57:51.103Z,100734.23
2018-10-02T08:00:55.171Z,100733.73
2018-10-02T08:03:59.337Z,100727.75
2018-10-02T08:07:03.592Z,100715.34
2018-10-02T08:10:07.524Z,100704.09
2018-10-02T08:13:11.860Z,100696.48
2018-10-02T08:16:16.235Z,100685.92
2018-10-02T08:19:20.520Z,100683.50
2018-10-02T08:22:24.694Z,100694.12
2018-10-02T08:25:28.731Z,100692.58
2018-10-02T08:28:32.722Z,100689.26
2018-10-02T08:31:36.763Z,100690.02
2018-10-02T08:34:40.827Z,100684.33
2018-10-02T08:37:44.911Z,100668.88
2018-10-02T08:40:49.045Z,100659.83
2018-10-02T08:43:53.277Z,100659.45
2018-10-02T08:46:57.488Z,100638.84
2018-10-02T08:50:01.533Z,100631.88
2018-10-02T08:53:05.689Z,100636.52
2018-10-02T08:56:09.694Z,100624.19
2018-10-02T08:59:13.656Z,100630.89
2018-10-02T09:02:17.597Z,100610.56
2018-10-02T09:05:21.779Z,100598.36
2018-10-02T09:08:25.724Z,100596.84
2018-10-02T09:11:29.645Z,100581.52
2018-10-02T09:14:34.146Z,100581.28
2018-10-02T09:17:38.267Z,100572.91
2018-10-02T09:20:42.227Z,100571.75
2018-10-02T09:23:46.371Z,100563.82
2018-10-02T09:26:50.823Z,100559.98
2018-10-02T09:29:59.959Z,100554.63
2018-10-02T09:33:09.422Z,100542.76
2018-10-02T09:36:19.122Z,100558.39
2018-10-02T09:39:28.741Z,100537.78
2018-10-02T09:42:38.144Z,100543.59
2018-10-02T09:45:42.307Z,100530.55
2018-10-02T09:48:46.381Z,100519.63
2018-10-02T09:51:50.531Z,100517.88
2018-10-02T09:54:54.605Z,100508.52
2018-10-02T09:57:58.808Z,100497.52
2018-10-02T10:02:09.981Z,100503.52
2018-10-02T10:05:14.115Z,100486.81
2018-10-02T10:08:18.262Z,100494.94
2018-10-02T10:11:22.184Z,100490.58
2018-10-02T10:14:26.123Z,100489.56
2018-10-02T10:17:30.469Z,100472.26
2018-10-02T10:20:34.880Z,100461.11
2018-10-02T10:23:38.843Z,100443.34
2018-10-02T10:26:42.840Z,100450.76
2018-10-02T10:29:48.131Z,100449.66
2018-10-02T10:32:52.264Z,100442.05
2018-10-02T10:35:56.311Z,100434.75
2018-10-02T10:39:00.341Z,100419.84
2018-10-02T10:42:04.475Z,100415.41
2018-10-02T10:45:11.334Z,100394.80
2018-10-02T10:48:15.884Z,100406.55
2018-10-02T10:51:19.991Z,100399.77
2018-10-02T10:54:23.994Z,100390.09
2018-10-02T10:57:28.061Z,100385.49
2018-10-02T11:00:32.373Z,100369.92
2018-10-02T11:03:36.379Z,100392.00
2018-10-02T11:06:41.983Z,100375.55
2018-10-02T11:09:46.078Z,100370.90
2018-10-02T11:12:50.147Z,100380.09
2018-10-02T11:15:54.085Z,100361.45
2018-10-02T11:18:58.010Z,100356.98
2018-10-02T11:22:02.329Z,100353.59
2018-10-02T11:25:07.249Z,100352.73
2018-10-02T11:28:13.140Z,100350.58
2018-10-02T11:31:18.377Z,100335.27
2018-10-02T11:34:22.995Z,100334.97
2018-10-02T11:37:29.014Z,100336.53
2018-10-02T11:40:33.170Z,100335.95
2018-10-02T11:43:38.921Z,100328.86
2018-10-02T11:46:43.936Z,100331.42
2018-10-02T11:49:48.244Z,100325.77
2018-10-02T11:52:53.063Z,100325.72
2018-10-02T11:55:57.336Z,100325.48
2018-10-02T11:59:02.115Z,100326.16
2018-10-02T12:02:06.825Z,100309.88
2018-10-02T12:05:10.883Z,100317.64
2018-10-02T12:08:16.337Z,100312.76
2018-10-02T12:11:20.585Z,100303.41
2018-10-02T12:14:25.135Z,100289.53
2018-10-02T12:17:29.669Z,100291.80
2018-10-02T12:20:33.869Z,100318.92
2018-10-02T12:23:38.725Z,100319.97
2018-10-02T12:26:42.867Z,100316.53
2018-10-02T12:29:47.544Z,100321.04
2018-10-02T12:32:52.777Z,100327.73
2018-10-02T12:35:56.802Z,100316.41
2018-10-02T12:39:01.778Z,100294.57
2018-10-02T12:42:05.895Z,100316.48
2018-10-02T12:45:09.912Z,100316.48
2018-10-02T12:48:13.894Z,100306.61
2018-10-02T12:51:18.128Z,100301.02
2018-10-02T12:54:22.375Z,100289.68
2018-10-02T12:57:26.290Z,100300.01
2018-10-02T13:00:30.267Z,100305.68
2018-10-02T13:03:34.266Z,100298.56
2018-10-02T13:06:38.592Z,100284.00
2018-10-02T13:09:42.586Z,100282.86
2018-10-02T13:12:46.512Z,100290.48
2018-10-02T13:15:50.479Z,100287.74
2018-10-02T13:18:54.426Z,100288.43
2018-10-02T13:21:58.619Z,100286.23
2018-10-02T13:25:02.915Z,100283.50
2018-10-02T13:28:06.868Z,100282.22
2018-10-02T13:31:11.046Z,100286.64
2018-10-02T13:34:15.196Z,100284.53
2018-10-02T13:37:20.849Z,100291.14
2018-10-02T13:40:24.923Z,100275.97
2018-10-02T13:43:28.858Z,100278.91
2018-10-02T13:46:32.835Z,100271.67
2018-10-02T13:49:36.892Z,100266.45
2018-10-02T13:52:41.188Z,100266.27
2018-10-02T13:55:45.170Z,100263.70
2018-10-02T13:58:49.159Z,100261.05
2018-10-02T14:01:53.348Z,100274.94
2018-10-02T14:04:57.381Z,100274.81
2018-10-02T14:08:03.410Z,100282.16
2018-10-02T14:11:07.591Z,100293.16
2018-10-02T14:14:11.857Z,100295.07
2018-10-02T14:17:16.655Z,100285.28
2018-10-02T14:20:20.730Z,100280.14
2018-10-02T14:23:24.745Z,100280.38
2018-10-02T14:26:28.817Z,100265.84
2018-10-02T14:29:33.303Z,100272.54
2018-10-02T14:32:37.390Z,100269.28
2018-10-02T14:35:41.719Z,100274.00
2018-10-02T14:38:50.890Z,100284.64
2018-10-02T14:42:07.895Z,100286.42
2018-10-02T14:45:11.769Z,100293.94
2018-10-02T14:48:15.649Z,100294.59
2018-10-02T14:51:19.545Z,100298.26
2018-10-02T14:54:23.478Z,100307.63
2018-10-02T14:57:27.361Z,100306.92
2018-10-02T15:00:31.577Z,100313.80
2018-10-02T15:03:35.458Z,100321.52
2018-10-02T15:06:39.349Z,100318.21
2018-10-02T15:09:43.248Z,100325.50
2018-10-02T15:12:47.130Z,100328.16
2018-10-02T15:15:51.225Z,100319.53
2018-10-02T15:18:55.110Z,100321.27
2018-10-02T15:21:59.069Z,100321.92
2018-10-02T15:25:02.987Z,100315.88
2018-10-02T15:28:06.898Z,100315.05
2018-10-02T15:31:11.148Z,100323.41
2018-10-02T15:34:15.221Z,100318.36
2018-10-02T15:37:19.515Z,100315.52
2018-10-02T15:40:23.534Z,100329.75
2018-10-02T15:43:27.419Z,100336.73
2018-10-02T15:46:31.330Z,100327.79
2018-10-02T15:49:35.332Z,100334.22
2018-10-02T15:52:39.478Z,100340.83
2018-10-02T15:55:44.112Z,100342.11
2018-10-02T15:58:48.561Z,100345.20
2018-10-02T16:01:52.957Z,100341.94
2018-10-02T16:04:56.842Z,100333.36
2018-10-02T16:08:00.749Z,100338.31
2018-10-02T16:11:04.684Z,100344.06
2018-10-02T16:14:08.781Z,100335.80
2018-10-02T16:17:12.675Z,100335.53
2018-10-02T16:20:16.569Z,100339.38
2018-10-02T16:23:20.465Z,100342.49
2018-10-02T16:26:24.352Z,100343.32
2018-10-02T16:29:28.809Z,100342.73
2018-10-02T16:32:32.713Z,100344.38
2018-10-02T16:35:36.694Z,100345.29
2018-10-02T16:38:40.591Z,100355.02
2018-10-02T16:41:44.474Z,100370.94
2018-10-02T16:44:48.415Z,100365.62
2018-10-02T16:47:52.549Z,100369.88
2018-10-02T16:50:56.418Z,100371.63
2018-10-02T16:54:00.309Z,100377.94
2018-10-02T16:57:04.768Z,100381.14
2018-10-02T17:00:09.289Z,100383.34
2018-10-02T17:03:13.421Z,100380.06
2018-10-02T17:06:17.312Z,100395.20
2018-10-02T17:09:21.518Z,100405.73
2018-10-02T17:12:25.461Z,100404.31
2018-10-02T17:15:30.065Z,100405.84
2018-10-02T17:18:33.945Z,100403.88
2018-10-02T17:21:37.934Z,100408.04
2018-10-02T17:24:41.953Z,100412.94
2018-10-02T17:27:45.835Z,100400.84
2018-10-02T17:30:49.708Z,100402.75
2018-10-02T17:33:53.926Z,100396.87
2018-10-02T17:36:57.811Z,100392.96
2018-10-02T17:40:01.919Z,100402.64
2018-10-02T17:43:05.970Z,100403.09
2018-10-02T17:46:10.204Z,100396.67
2018-10-02T17:49:14.085Z,100400.75
2018-10-02T17:52:18.482Z,100401.38
2018-10-02T17:55:22.397Z,100400.66
2018-10-02T17:58:26.282Z,100394.41
2018-10-02T18:01:30.210Z,100388.67
2018-10-02T18:04:34.229Z,100389.28
2018-10-02T18:07:38.178Z,100393.52
2018-10-02T18:10:42.181Z,100401.02
2018-10-02T18:13:46.065Z,100405.45
2018-10-02T18:16:49.946Z,100397.68
2018-10-02T18:19:54.010Z,100413.28
2018-10-02T18:22:58.281Z,100411.05
2018-10-02T18:26:02.156Z,100416.02
2018-10-02T18:29:06.050Z,100414.52
2018-10-02T18:32:10.293Z,100425.82
2018-10-02T18:35:14.186Z,100423.92
2018-10-02T18:38:18.406Z,100425.91
2018-10-02T18:41:22.397Z,100421.44
2018-10-02T18:44:26.302Z,100430.58
2018-10-02T18:47:30.383Z,100426.20
2018-10-02T18:50:34.279Z,100429.67
2018-10-02T18:53:38.422Z,100427.56
2018-10-02T18:56:42.388Z,100431.36
2018-10-02T18:59:46.458Z,100430.98
2018-10-02T19:02:50.354Z,100439.34
2018-10-02T19:05:54.311Z,100440.87
2018-10-02T19:09:03.804Z,100456.39
2018-10-02T19:12:11.854Z,100448.54
2018-10-02T19:15:15.873Z,100459.18
2018-10-02T19:18:20.006Z,100452.02
2018-10-02T19:21:24.134Z,100440.31
2018-10-02T19:24:27.992Z,100446.88
2018-10-02T19:27:31.914Z,100448.70
2018-10-02T19:30:41.090Z,100446.38
2018-10-02T19:33:45.082Z,100442.28
2018-10-02T19:36:49.165Z,100456.31
2018-10-02T19:39:53.384Z,100457.39
2018-10-02T19:42:57.248Z,100458.75
2018-10-02T19:46:06.563Z,100450.52
2018-10-02T19:49:10.450Z,100452.92
2018-10-02T19:52:15.548Z,100458.20
2018-10-02T19:55:19.648Z,100455.10
2018-10-02T19:58:23.568Z,100456.84
2018-10-02T20:01:27.666Z,100455.86
2018-10-02T20:04:31.555Z,100469.47
2018-10-02T20:07:35.438Z,100468.69
2018-10-02T20:10:39.340Z,100467.19
2018-10-02T20:13:43.914Z,100470.58
2018-10-02T20:16:47.991Z,100471.50
2018-10-02T20:19:51.868Z,100474.64
2018-10-02T20:22:56.098Z,100470.30
2018-10-02T20:26:00.470Z,100462.44
2018-10-02T20:29:04.606Z,100455.66
2018-10-02T20:32:08.510Z,100460.78
2018-10-02T20:35:12.606Z,100451.88
2018-10-02T20:38:16.511Z,100462.89
2018-10-02T20:41:20.423Z,100470.51
2018-10-02T20:44:24.325Z,100474.73
2018-10-02T20:47:28.217Z,100473.45
2018-10-02T20:50:32.129Z,100478.42
2018-10-02T20:53:36.105Z,100470.43
2018-10-02T20:56:40.063Z,100475.72
2018-10-02T20:59:44.108Z,100494.27
2018-10-02T21:02:47.981Z,100488.14
2018-10-02T21:05:51.876Z,100493.28
2018-10-02T21:08:55.815Z,100483.88
2018-10-02T21:11:59.697Z,100480.53
2018-10-02T21:15:03.934Z,100464.47
2018-10-02T21:18:08.053Z,100463.34
2018-10-02T21:21:12.127Z,100453.38
2018-10-02T21:24:16.005Z,100454.28
2018-10-02T21:27:19.882Z,100453.16
2018-10-02T21:30:23.853Z,100463.09
2018-10-02T21:33:27.820Z,100463.72
2018-10-02T21:36:31.717Z,100463.63
2018-10-02T21:39:35.828Z,100464.54
2018-10-02T21:42:39.858Z,100455.55
2018-10-02T21:45:43.762Z,100471.48
2018-10-02T21:48:47.753Z,100466.89
2018-10-02T21:51:51.970Z,100462.30
2018-10-02T21:54:55.857Z,100473.13
2018-10-02T21:57:59.749Z,100455.64
2018-10-02T22:01:03.709Z,100461.44
2018-10-02T22:04:07.734Z,100455.27
2018-10-02T22:07:11.816Z,100482.09
2018-10-02T22:10:15.898Z,100492.30
2018-10-02T22:13:20.174Z,100510.38
2018-10-02T22:16:24.057Z,100505.94
2018-10-02T22:19:28.143Z,100499.83
2018-10-02T22:22:32.316Z,100497.41
2018-10-02T22:25:36.278Z,100480.75
2018-10-02T22:28:40.188Z,100471.97
2018-10-02T22:31:44.154Z,100474.41
2018-10-02T22:34:48.417Z,100465.66
2018-10-02T22:37:52.551Z,100460.83
2018-10-02T22:40:56.880Z,100457.14
2018-10-02T22:44:00.929Z,100444.32
2018-10-02T22:47:05.326Z,100458.19
2018-10-02T22:50:09.442Z,100446.51
2018-10-02T22:53:13.556Z,100460.97
2018-10-02T22:56:17.542Z,100464.97
2018-10-02T22:59:21.603Z,100453.66
2018-10-02T23:02:25.654Z,100459.39
2018-10-02T23:05:29.615Z,100484.80
2018-10-02T23:08:33.780Z,100462.33
2018-10-02T23:11:38.127Z,100447.93
2018-10-02T23:14:42.295Z,100474.54
2018-10-02T23:17:46.240Z,100475.14
2018-10-02T23:20:50.313Z,100482.36
2018-10-02T23:23:54.281Z,100487.86
2018-10-02T23:26:58.402Z,100493.14
2018-10-02T23:30:02.633Z,100487.41
2018-10-02T23:33:06.606Z,100482.81
2018-10-02T23:36:17.327Z,100489.67
2018-10-02T23:39:22.804Z,100493.77
2018-10-02T23:42:28.433Z,100503.32
2018-10-02T23:45:37.506Z,100525.18
2018-10-02T23:48:45.943Z,100520.64
2018-10-02T23:51:59.245Z,100494.00
2018-10-02T23:55:03.243Z,100494.37
2018-10-02T23:58:07.985Z,100478.90
